createdAt,value
2017-12-11T00:01:24.430Z,90.20
2017-12-11T00:03:51.900Z,90.50
2017-12-11T00:06:19.378Z,90.70
2017-12-11T00:08:46.846Z,90.60
2017-12-11T00:11:14.341Z,90.60
2017-12-11T00:13:41.886Z,90.40
2017-12-11T00:16:10.126Z,90.40
2017-12-11T00:18:38.416Z,90.30
2017-12-11T00:21:06.624Z,90.60
2017-12-11T00:23:34.161Z,90.60
2017-12-11T00:26:01.606Z,91.30
2017-12-11T00:28:29.865Z,91.20
2017-12-11T00:30:57.326Z,91.20
2017-12-11T00:33:26.356Z,90.90
2017-12-11T00:35:53.824Z,90.90
2017-12-11T00:38:21.293Z,91.30
2017-12-11T00:40:48.795Z,91.20
2017-12-11T00:43:16.241Z,90.80
2017-12-11T00:45:43.771Z,90.50
2017-12-11T00:48:11.250Z,90.60
2017-12-11T00:50:38.779Z,90.90
2017-12-11T00:53:06.254Z,90.50
2017-12-11T00:55:36.115Z,90.30
2017-12-11T00:58:03.577Z,90.30
2017-12-11T01:00:31.069Z,90.50
2017-12-11T01:02:58.487Z,90.30
2017-12-11T01:05:26.734Z,90.40
2017-12-11T01:07:54.193Z,90.50
2017-12-11T01:10:22.416Z,90.40
2017-12-11T01:12:49.921Z,90.40
2017-12-11T01:15:17.436Z,90.50
2017-12-11T01:17:44.976Z,90.70
2017-12-11T01:20:13.263Z,90.50
2017-12-11T01:22:42.201Z,90.40
2017-12-11T01:25:09.724Z,90.40
2017-12-11T01:27:37.175Z,90.60
2017-12-11T01:30:04.779Z,90.30
2017-12-11T01:32:33.052Z,90.20
2017-12-11T01:35:00.550Z,90.20
2017-12-11T01:37:28.771Z,90.20
2017-12-11T01:39:56.409Z,90.20
2017-12-11T01:42:23.885Z,89.50
2017-12-11T01:44:52.136Z,89.80
2017-12-11T01:47:19.554Z,90.20
2017-12-11T01:49:47.149Z,90.30
2017-12-11T01:52:14.785Z,90.10
2017-12-11T01:54:42.249Z,90.40
2017-12-11T01:57:09.707Z,89.40
2017-12-11T01:59:37.236Z,89.50
2017-12-11T02:02:04.713Z,90.00
2017-12-11T02:04:32.942Z,88.60
2017-12-11T02:07:00.554Z,88.50
2017-12-11T02:09:28.789Z,89.30
2017-12-11T02:11:56.318Z,89.30
2017-12-11T02:14:24.085Z,89.20
2017-12-11T02:16:51.580Z,88.50
2017-12-11T02:19:19.814Z,88.50
2017-12-11T02:21:48.046Z,88.80
2017-12-11T02:24:15.515Z,88.80
2017-12-11T02:26:42.972Z,89.90
2017-12-11T02:29:10.480Z,88.60
2017-12-11T02:31:38.752Z,88.60
2017-12-11T02:34:06.972Z,88.80
2017-12-11T02:36:34.412Z,88.80
2017-12-11T02:39:01.895Z,88.70
2017-12-11T02:41:29.374Z,85.90
2017-12-11T02:43:56.860Z,87.40
2017-12-11T02:46:24.313Z,88.10
2017-12-11T02:48:51.790Z,88.80
2017-12-11T02:51:20.034Z,87.20
2017-12-11T02:53:47.549Z,87.20
2017-12-11T02:56:15.818Z,88.60
2017-12-11T02:58:43.287Z,88.60
2017-12-11T03:01:10.766Z,88.80
2017-12-11T03:03:39.025Z,88.80
2017-12-11T03:06:06.467Z,88.60
2017-12-11T03:08:33.917Z,89.50
2017-12-11T03:11:01.414Z,88.30
2017-12-11T03:13:28.876Z,88.80
2017-12-11T03:15:57.114Z,88.40
2017-12-11T03:18:24.555Z,88.40
2017-12-11T03:20:52.037Z,88.80
2017-12-11T03:23:19.461Z,86.80
2017-12-11T03:25:47.760Z,87.00
2017-12-11T03:28:15.224Z,86.90
2017-12-11T03:30:42.712Z,85.60
2017-12-11T03:33:10.177Z,86.10
2017-12-11T03:35:37.661Z,86.70
2017-12-11T03:38:05.901Z,86.60
2017-12-11T03:40:33.407Z,86.70
2017-12-11T03:43:00.844Z,87.30
2017-12-11T03:45:28.376Z,85.40
2017-12-11T03:47:55.780Z,86.30
2017-12-11T03:50:23.257Z,86.40
2017-12-11T03:52:50.726Z,85.60
2017-12-11T03:55:18.205Z,84.30
2017-12-11T03:57:46.436Z,85.20
2017-12-11T04:00:14.054Z,85.00
2017-12-11T04:02:42.302Z,86.00
2017-12-11T04:05:09.744Z,85.90
2017-12-11T04:07:37.208Z,85.30
2017-12-11T04:10:04.666Z,85.30
2017-12-11T04:12:32.155Z,85.30
2017-12-11T04:14:59.656Z,84.50
2017-12-11T04:17:27.095Z,84.30
2017-12-11T04:19:55.334Z,83.70
2017-12-11T04:22:22.834Z,83.80
2017-12-11T04:24:50.330Z,83.60
2017-12-11T04:27:17.816Z,84.50
2017-12-11T04:29:45.265Z,85.00
2017-12-11T04:32:12.758Z,84.50
2017-12-11T04:34:40.211Z,83.60
2017-12-11T04:37:07.691Z,84.70
2017-12-11T04:39:35.141Z,84.20
2017-12-11T04:42:02.591Z,84.20
2017-12-11T04:44:30.055Z,83.30
2017-12-11T04:46:57.554Z,84.40
2017-12-11T04:49:25.073Z,85.00
2017-12-11T04:51:52.547Z,84.50
2017-12-11T04:54:20.011Z,84.30
2017-12-11T04:56:47.492Z,83.90
2017-12-11T04:59:16.512Z,83.00
2017-12-11T05:01:44.746Z,83.80
2017-12-11T05:04:12.263Z,83.70
2017-12-11T05:06:40.479Z,83.90
2017-12-11T05:09:07.968Z,83.80
2017-12-11T05:11:35.587Z,84.40
2017-12-11T05:14:03.186Z,86.50
2017-12-11T05:16:31.463Z,87.70
2017-12-11T05:18:58.963Z,87.70
2017-12-11T05:21:26.555Z,87.00
2017-12-11T05:23:54.853Z,87.70
2017-12-11T05:26:22.368Z,87.70
2017-12-11T05:28:49.878Z,86.40
2017-12-11T05:31:18.075Z,86.90
2017-12-11T05:33:45.675Z,86.80
2017-12-11T05:36:13.933Z,87.60
2017-12-11T05:38:41.498Z,86.40
2017-12-11T05:41:08.968Z,87.00
2017-12-11T05:43:36.550Z,87.30
2017-12-11T05:46:04.033Z,87.20
2017-12-11T05:48:32.302Z,88.40
2017-12-11T05:50:59.825Z,88.30
2017-12-11T05:53:27.298Z,87.60
2017-12-11T05:55:54.783Z,86.60
2017-12-11T05:58:22.254Z,86.10
2017-12-11T06:00:50.596Z,86.30
2017-12-11T06:03:18.154Z,86.20
2017-12-11T06:05:45.659Z,86.70
2017-12-11T06:08:13.158Z,86.60
2017-12-11T06:10:40.627Z,86.10
2017-12-11T06:13:08.219Z,86.80
2017-12-11T06:15:35.731Z,85.70
2017-12-11T06:18:03.166Z,85.10
2017-12-11T06:20:30.685Z,86.70
2017-12-11T06:22:58.352Z,86.90
2017-12-11T06:25:25.823Z,87.00
2017-12-11T06:27:53.332Z,87.00
2017-12-11T06:30:21.544Z,87.10
2017-12-11T06:32:49.170Z,87.10
2017-12-11T06:35:16.588Z,87.20
2017-12-11T06:37:44.070Z,86.30
2017-12-11T06:40:11.556Z,86.00
2017-12-11T06:42:39.071Z,86.70
2017-12-11T06:45:07.286Z,86.50
2017-12-11T06:47:34.764Z,86.50
2017-12-11T06:50:02.280Z,86.30
2017-12-11T06:52:29.752Z,86.20
2017-12-11T06:54:57.254Z,86.30
2017-12-11T06:57:24.756Z,86.70
2017-12-11T06:59:52.219Z,88.30
2017-12-11T07:02:19.662Z,87.80
2017-12-11T07:04:47.146Z,87.50
2017-12-11T07:07:14.662Z,88.20
2017-12-11T07:09:42.149Z,87.60
2017-12-11T07:12:10.375Z,87.50
2017-12-11T07:14:37.859Z,87.50
2017-12-11T07:17:05.302Z,87.70
2017-12-11T07:19:32.771Z,87.10
2017-12-11T07:22:00.260Z,88.20
2017-12-11T07:24:28.500Z,86.90
2017-12-11T07:26:56.004Z,86.80
2017-12-11T07:29:23.453Z,87.60
2017-12-11T07:31:50.914Z,87.70
2017-12-11T07:34:19.214Z,87.70
2017-12-11T07:36:46.717Z,87.70
2017-12-11T07:39:14.257Z,88.30
2017-12-11T07:41:41.683Z,88.60
2017-12-11T07:44:09.201Z,87.30
2017-12-11T07:46:36.709Z,88.10
2017-12-11T07:49:05.678Z,87.70
2017-12-11T07:51:33.163Z,87.70
2017-12-11T07:54:00.629Z,87.40
2017-12-11T07:56:28.146Z,86.70
2017-12-11T07:58:55.605Z,87.40
2017-12-11T08:01:23.040Z,88.00
2017-12-11T08:03:51.337Z,88.20
2017-12-11T08:06:19.560Z,89.20
2017-12-11T08:08:47.071Z,89.20
2017-12-11T08:11:15.336Z,88.50
2017-12-11T08:13:42.823Z,88.40
2017-12-11T08:16:11.042Z,88.50
2017-12-11T08:18:38.532Z,88.40
2017-12-11T08:21:06.036Z,88.60
2017-12-11T08:23:33.485Z,88.30
2017-12-11T08:26:01.721Z,88.40
2017-12-11T08:28:29.184Z,88.40
2017-12-11T08:30:56.631Z,88.50
2017-12-11T08:33:24.105Z,88.00
2017-12-11T08:35:51.568Z,88.60
2017-12-11T08:38:19.067Z,88.80
2017-12-11T08:40:47.276Z,89.00
2017-12-11T08:43:14.868Z,89.00
2017-12-11T08:45:43.117Z,89.80
2017-12-11T08:48:10.662Z,89.80
2017-12-11T08:50:38.092Z,90.30
2017-12-11T08:53:05.577Z,90.00
2017-12-11T08:55:33.054Z,90.00
2017-12-11T08:58:01.305Z,90.10
2017-12-11T09:00:28.854Z,90.10
2017-12-11T09:02:56.266Z,90.20
2017-12-11T09:05:24.509Z,89.10
2017-12-11T09:07:52.730Z,89.70
2017-12-11T09:10:20.199Z,89.60
2017-12-11T09:12:47.668Z,89.60
2017-12-11T09:15:15.130Z,90.20
2017-12-11T09:17:42.625Z,90.50
2017-12-11T09:20:10.239Z,90.50
2017-12-11T09:22:38.452Z,90.40
2017-12-11T09:25:05.905Z,90.40
2017-12-11T09:27:33.396Z,90.80
2017-12-11T09:30:00.881Z,90.40
2017-12-11T09:32:28.359Z,90.70
2017-12-11T09:34:55.825Z,91.10
2017-12-11T09:37:24.060Z,91.10
2017-12-11T09:39:51.547Z,91.00
2017-12-11T09:42:19.016Z,91.10
2017-12-11T09:44:46.484Z,90.80
2017-12-11T09:47:14.736Z,91.00
2017-12-11T09:49:42.201Z,91.00
2017-12-11T09:52:10.417Z,92.40
2017-12-11T09:54:38.691Z,92.00
2017-12-11T09:57:06.951Z,92.50
2017-12-11T09:59:36.075Z,92.30
2017-12-11T10:02:04.381Z,93.50
2017-12-11T10:04:31.806Z,93.40
2017-12-11T10:07:00.071Z,94.10
2017-12-11T10:09:27.524Z,94.10
2017-12-11T10:11:54.999Z,94.10
2017-12-11T10:14:22.484Z,94.20
2017-12-11T10:16:50.732Z,94.50
2017-12-11T10:19:18.228Z,94.50
2017-12-11T10:21:46.406Z,94.70
2017-12-11T10:24:13.902Z,94.70
2017-12-11T10:26:41.377Z,94.60
2017-12-11T10:29:08.845Z,95.00
2017-12-11T10:31:36.357Z,95.20
2017-12-11T10:34:04.613Z,96.30
2017-12-11T10:36:32.068Z,96.30
2017-12-11T10:38:59.547Z,96.80
2017-12-11T10:41:26.998Z,96.70
2017-12-11T10:43:54.513Z,96.90
2017-12-11T10:46:22.052Z,97.10
2017-12-11T10:48:49.510Z,97.00
2017-12-11T10:51:17.720Z,97.10
2017-12-11T10:53:45.175Z,97.10
2017-12-11T10:56:12.653Z,97.20
2017-12-11T10:58:40.409Z,97.50
2017-12-11T11:01:07.918Z,97.50
2017-12-11T11:03:35.410Z,97.60
2017-12-11T11:06:03.625Z,97.50
2017-12-11T11:08:31.147Z,97.50
2017-12-11T11:10:59.372Z,97.80
2017-12-11T11:13:26.895Z,97.70
2017-12-11T11:15:54.372Z,98.10
2017-12-11T11:18:21.856Z,98.60
2017-12-11T11:20:49.442Z,98.60
2017-12-11T11:23:16.865Z,98.10
2017-12-11T11:25:44.356Z,98.50
2017-12-11T11:28:11.880Z,98.10
2017-12-11T11:30:40.101Z,98.60
2017-12-11T11:33:07.549Z,98.60
2017-12-11T11:35:35.060Z,98.30
2017-12-11T11:38:02.483Z,98.80
2017-12-11T11:40:30.007Z,98.60
2017-12-11T11:42:58.211Z,98.10
2017-12-11T11:45:25.717Z,98.10
2017-12-11T11:47:53.182Z,98.60
2017-12-11T11:50:20.717Z,98.40
2017-12-11T11:52:48.200Z,98.40
2017-12-11T11:55:15.658Z,98.60
2017-12-11T11:57:43.142Z,98.60
2017-12-11T12:00:10.650Z,98.60
2017-12-11T12:02:38.277Z,98.80
2017-12-11T12:05:05.774Z,98.60
2017-12-11T12:07:33.237Z,98.30
2017-12-11T12:10:00.745Z,98.20
2017-12-11T12:12:28.264Z,98.30
2017-12-11T12:14:55.756Z,98.40
2017-12-11T12:17:23.250Z,98.30
2017-12-11T12:19:50.737Z,97.80
2017-12-11T12:22:18.193Z,97.90
2017-12-11T12:24:46.476Z,97.90
2017-12-11T12:27:14.721Z,97.50
2017-12-11T12:29:42.193Z,97.50
2017-12-11T12:32:09.724Z,97.60
2017-12-11T12:34:37.255Z,97.80
2017-12-11T12:37:04.718Z,97.30
2017-12-11T12:39:32.179Z,97.30
2017-12-11T12:41:59.673Z,97.00
2017-12-11T12:44:27.134Z,97.50
2017-12-11T12:46:54.687Z,97.60
2017-12-11T12:49:22.394Z,97.50
2017-12-11T12:51:49.891Z,97.10
2017-12-11T12:54:18.199Z,97.40
2017-12-11T12:56:45.723Z,97.20
2017-12-11T12:59:13.986Z,97.10
2017-12-11T13:01:41.634Z,97.10
2017-12-11T13:04:09.129Z,97.10
2017-12-11T13:06:36.607Z,97.20
2017-12-11T13:09:04.114Z,97.00
2017-12-11T13:11:31.621Z,97.10
2017-12-11T13:13:59.082Z,97.10
2017-12-11T13:16:26.647Z,97.20
2017-12-11T13:18:54.100Z,97.30
2017-12-11T13:21:21.694Z,97.70
2017-12-11T13:23:49.999Z,97.70
2017-12-11T13:26:17.528Z,97.70
2017-12-11T13:28:45.756Z,98.00
2017-12-11T13:31:13.282Z,98.00
2017-12-11T13:33:40.785Z,98.10
2017-12-11T13:36:08.251Z,98.00
2017-12-11T13:38:35.809Z,98.00
2017-12-11T13:41:03.256Z,97.80
2017-12-11T13:43:30.717Z,97.70
2017-12-11T13:45:58.219Z,97.90
2017-12-11T13:48:25.664Z,97.80
2017-12-11T13:50:53.265Z,97.80
2017-12-11T13:53:20.768Z,97.90
2017-12-11T13:55:48.986Z,98.00
2017-12-11T13:58:16.551Z,98.00
2017-12-11T14:00:43.993Z,97.70
2017-12-11T14:03:11.489Z,98.20
2017-12-11T14:05:40.475Z,98.20
2017-12-11T14:08:07.956Z,98.10
2017-12-11T14:10:35.457Z,98.30
2017-12-11T14:13:02.893Z,98.20
2017-12-11T14:15:31.180Z,98.10
2017-12-11T14:17:59.442Z,98.30
2017-12-11T14:20:26.930Z,98.30
2017-12-11T14:22:54.495Z,98.30
2017-12-11T14:25:21.964Z,98.20
2017-12-11T14:27:49.513Z,98.20
2017-12-11T14:30:17.766Z,97.90
2017-12-11T14:32:45.215Z,97.90
2017-12-11T14:35:12.706Z,97.90
2017-12-11T14:37:40.958Z,98.50
2017-12-11T14:40:08.428Z,98.10
2017-12-11T14:42:35.922Z,98.00
2017-12-11T14:45:03.447Z,97.90
2017-12-11T14:47:30.901Z,97.60
2017-12-11T14:49:58.418Z,97.60
2017-12-11T14:52:25.871Z,97.20
2017-12-11T14:54:54.655Z,98.30
2017-12-11T14:57:22.070Z,98.00
2017-12-11T14:59:49.561Z,97.90
2017-12-11T15:02:17.067Z,97.70
2017-12-11T15:04:44.493Z,98.00
2017-12-11T15:07:12.099Z,98.10
2017-12-11T15:09:39.610Z,98.20
2017-12-11T15:12:07.101Z,97.80
2017-12-11T15:14:34.598Z,97.90
2017-12-11T15:17:02.086Z,97.90
2017-12-11T15:19:29.638Z,97.70
2017-12-11T15:21:57.882Z,97.80
2017-12-11T15:24:26.167Z,97.70
2017-12-11T15:26:54.467Z,97.50
2017-12-11T15:29:21.857Z,97.50
2017-12-11T15:31:49.315Z,97.40
2017-12-11T15:34:16.765Z,97.40
2017-12-11T15:36:44.266Z,97.40
2017-12-11T15:39:11.758Z,97.60
2017-12-11T15:41:39.984Z,97.50
2017-12-11T15:44:07.507Z,97.50
2017-12-11T15:46:34.999Z,97.50
2017-12-11T15:49:02.470Z,97.30
2017-12-11T15:51:30.034Z,97.50
2017-12-11T15:53:57.517Z,97.50
2017-12-11T15:56:24.963Z,97.70
2017-12-11T15:58:52.445Z,98.10
2017-12-11T16:01:19.900Z,97.90
2017-12-11T16:03:47.372Z,98.00
2017-12-11T16:06:14.858Z,97.80
2017-12-11T16:08:43.122Z,97.80
2017-12-11T16:11:11.408Z,98.00
2017-12-11T16:13:39.644Z,97.90
2017-12-11T16:16:07.138Z,97.80
2017-12-11T16:18:34.605Z,97.90
2017-12-11T16:21:02.059Z,98.10
2017-12-11T16:23:29.558Z,98.00
2017-12-11T16:25:57.074Z,98.30
2017-12-11T16:28:24.533Z,98.40
2017-12-11T16:30:52.001Z,98.60
2017-12-11T16:33:20.262Z,98.10
2017-12-11T16:35:47.699Z,98.10
2017-12-11T16:38:15.250Z,98.20
2017-12-11T16:40:42.799Z,98.30
2017-12-11T16:43:11.082Z,98.20
2017-12-11T16:45:38.568Z,98.20
2017-12-11T16:48:06.011Z,98.20
2017-12-11T16:50:33.496Z,98.20
2017-12-11T16:53:00.969Z,98.20
2017-12-11T16:55:28.506Z,98.10
2017-12-11T16:57:56.792Z,97.90
2017-12-11T17:00:24.294Z,98.00
2017-12-11T17:02:52.551Z,97.90
2017-12-11T17:05:20.130Z,97.90
2017-12-11T17:07:50.598Z,97.90
2017-12-11T17:10:18.134Z,97.80
2017-12-11T17:12:45.610Z,97.90
2017-12-11T17:15:13.100Z,97.80
2017-12-11T17:17:40.599Z,97.90
2017-12-11T17:20:08.049Z,97.90
2017-12-11T17:22:35.620Z,98.00
2017-12-11T17:25:03.123Z,98.00
2017-12-11T17:27:30.587Z,98.10
2017-12-11T17:29:58.034Z,98.10
2017-12-11T17:32:25.570Z,98.30
2017-12-11T17:34:53.068Z,98.40
2017-12-11T17:37:20.588Z,98.30
2017-12-11T17:39:48.851Z,98.40
2017-12-11T17:42:16.341Z,98.40
2017-12-11T17:44:43.774Z,98.60
2017-12-11T17:47:11.207Z,98.30
2017-12-11T17:49:38.734Z,98.40
2017-12-11T17:52:06.284Z,98.30
2017-12-11T17:54:33.681Z,98.40
2017-12-11T17:57:01.171Z,98.50
2017-12-11T17:59:28.685Z,98.50
2017-12-11T18:01:56.157Z,98.50
2017-12-11T18:04:23.678Z,98.50
2017-12-11T18:06:51.928Z,98.50
2017-12-11T18:09:19.451Z,98.50
2017-12-11T18:11:46.918Z,98.60
2017-12-11T18:14:14.444Z,98.60
2017-12-11T18:16:41.936Z,98.60
2017-12-11T18:19:09.407Z,98.80
2017-12-11T18:21:36.954Z,98.80
2017-12-11T18:24:04.446Z,98.70
2017-12-11T18:26:31.945Z,98.80
2017-12-11T18:28:59.448Z,98.90
2017-12-11T18:31:26.970Z,98.80
2017-12-11T18:33:54.423Z,98.90
2017-12-11T18:36:21.943Z,98.80
2017-12-11T18:38:49.406Z,98.80
2017-12-11T18:41:16.941Z,98.90
2017-12-11T18:43:45.294Z,99.10
2017-12-11T18:46:12.731Z,99.10
2017-12-11T18:48:40.470Z,99.00
2017-12-11T18:51:08.042Z,99.30
2017-12-11T18:53:35.736Z,99.10
2017-12-11T18:56:03.226Z,99.10
2017-12-11T18:58:30.733Z,99.10
2017-12-11T19:00:59.190Z,99.20
2017-12-11T19:03:26.906Z,99.10
2017-12-11T19:05:54.621Z,99.00
2017-12-11T19:08:22.490Z,99.10
2017-12-11T19:10:50.125Z,99.10
2017-12-11T19:13:18.304Z,98.90
2017-12-11T19:15:45.808Z,98.90
2017-12-11T19:18:13.279Z,98.90
2017-12-11T19:20:41.594Z,98.60
2017-12-11T19:23:09.114Z,98.80
2017-12-11T19:25:36.600Z,98.60
2017-12-11T19:28:04.121Z,98.60
2017-12-11T19:30:31.605Z,98.60
2017-12-11T19:32:59.879Z,98.60
2017-12-11T19:35:27.588Z,98.60
2017-12-11T19:37:55.121Z,98.50
2017-12-11T19:40:23.461Z,98.20
2017-12-11T19:42:50.917Z,98.30
2017-12-11T19:45:18.441Z,98.30
2017-12-11T19:47:46.664Z,98.40
2017-12-11T19:50:14.184Z,98.40
2017-12-11T19:52:42.541Z,98.20
2017-12-11T19:55:10.723Z,98.20
2017-12-11T19:57:38.938Z,98.20
2017-12-11T20:00:06.715Z,98.50
2017-12-11T20:02:34.174Z,98.20
2017-12-11T20:05:01.947Z,98.20
2017-12-11T20:07:29.433Z,98.20
2017-12-11T20:09:57.068Z,98.10
2017-12-11T20:12:25.662Z,98.10
2017-12-11T20:14:53.144Z,98.00
2017-12-11T20:17:20.611Z,98.10
2017-12-11T20:19:48.092Z,98.10
2017-12-11T20:22:15.826Z,98.10
2017-12-11T20:24:43.325Z,98.10
2017-12-11T20:27:10.822Z,98.10
2017-12-11T20:29:38.754Z,98.10
2017-12-11T20:32:06.486Z,98.10
2017-12-11T20:34:33.958Z,98.10
2017-12-11T20:37:01.523Z,98.00
2017-12-11T20:39:29.990Z,98.10
2017-12-11T20:41:57.865Z,98.00
2017-12-11T20:44:25.748Z,98.10
2017-12-11T20:46:53.196Z,98.20
2017-12-11T20:49:20.664Z,98.20
2017-12-11T20:51:48.192Z,98.50
2017-12-11T20:54:15.717Z,98.70
2017-12-11T20:56:43.186Z,99.60
2017-12-11T20:59:10.840Z,99.90
2017-12-11T21:01:38.307Z,99.90
2017-12-11T21:04:05.786Z,99.90
2017-12-11T21:06:33.361Z,99.90
2017-12-11T21:09:00.841Z,99.90
2017-12-11T21:11:28.441Z,99.90
2017-12-11T21:13:55.930Z,99.90
2017-12-11T21:16:23.429Z,99.90
2017-12-11T21:18:51.654Z,99.90
2017-12-11T21:21:19.103Z,99.90
2017-12-11T21:23:46.613Z,99.90
2017-12-11T21:26:14.076Z,99.90
2017-12-11T21:28:41.606Z,99.90
2017-12-11T21:31:09.852Z,99.90
2017-12-11T21:33:38.101Z,99.90
2017-12-11T21:36:05.665Z,99.90
2017-12-11T21:38:33.132Z,99.90
2017-12-11T21:41:00.641Z,99.90
2017-12-11T21:43:28.087Z,99.90
2017-12-11T21:45:56.338Z,99.90
2017-12-11T21:48:23.995Z,99.90
2017-12-11T21:50:51.447Z,99.90
2017-12-11T21:53:18.931Z,99.90
2017-12-11T21:55:46.423Z,99.90
2017-12-11T21:58:14.702Z,99.90
2017-12-11T22:00:42.288Z,99.90
2017-12-11T22:03:09.746Z,99.90
2017-12-11T22:05:37.255Z,99.90
2017-12-11T22:08:05.571Z,99.90
2017-12-11T22:10:33.020Z,99.90
2017-12-11T22:13:00.571Z,99.90
2017-12-11T22:15:28.086Z,99.90
2017-12-11T22:17:55.527Z,99.90
2017-12-11T22:20:23.063Z,99.90
2017-12-11T22:22:50.542Z,99.90
2017-12-11T22:25:18.806Z,99.90
2017-12-11T22:27:46.494Z,99.90
2017-12-11T22:30:14.776Z,99.90
2017-12-11T22:32:42.258Z,99.90
2017-12-11T22:35:09.791Z,99.90
2017-12-11T22:37:37.212Z,99.90
2017-12-11T22:40:04.838Z,99.90
2017-12-11T22:42:33.049Z,99.90
2017-12-11T22:45:00.674Z,99.90
2017-12-11T22:47:28.144Z,99.90
2017-12-11T22:49:55.602Z,99.90
2017-12-11T22:52:23.850Z,99.90
2017-12-11T22:54:51.391Z,99.90
2017-12-11T22:57:18.855Z,99.90
2017-12-11T22:59:46.321Z,99.90
2017-12-11T23:02:14.090Z,99.90
2017-12-11T23:04:41.784Z,99.90
2017-12-11T23:07:09.210Z,99.90
2017-12-11T23:09:36.747Z,99.90
2017-12-11T23:12:04.186Z,99.90
2017-12-11T23:14:32.432Z,99.90
2017-12-11T23:16:59.962Z,99.90
2017-12-11T23:19:27.503Z,99.90
2017-12-11T23:21:54.939Z,99.90
2017-12-11T23:24:22.490Z,99.90
2017-12-11T23:26:49.963Z,99.90
2017-12-11T23:29:17.548Z,99.90
2017-12-11T23:31:45.760Z,99.90
2017-12-11T23:34:13.251Z,99.80
2017-12-11T23:36:40.735Z,99.90
2017-12-11T23:39:08.218Z,99.90
2017-12-11T23:41:35.790Z,99.90
2017-12-11T23:44:04.125Z,99.90
2017-12-11T23:46:31.590Z,99.90
2017-12-11T23:48:59.050Z,99.90
2017-12-11T23:51:26.509Z,99.90
2017-12-11T23:53:53.995Z,99.90
2017-12-11T23:56:21.466Z,99.90
2017-12-11T23:58:48.954Z,99.90
